Time;durP1;ratioP1;P1;durP2;ratioP2;P2;SDS_P1;SDS_P2;PMS_P1;PMS_P2;Temp;Humidity;BMP_temperature;BMP_pressure;BME280_temperature;BME280_humidity;BME280_pressure;Samples;Min_cycle;Max_cycle;Signal;HPM_P1;HPM_P2
2023/08/01 00:00:25;;;;;;;5.90;3.00;;;;;;;-142.57;71.86;115900.28;5034146;28;20401;-89
2023/08/01 00:02:54;;;;;;;5.38;3.00;;;;;;;-142.57;72.06;115900.28;5042219;23;20036;-88
2023/08/01 00:05:20;;;;;;;5.28;2.88;;;;;;;-142.57;71.20;115900.28;5053906;28;20087;-89
2023/08/01 00:07:46;;;;;;;6.07;2.90;;;;;;;-142.57;71.36;115900.28;5054013;28;20493;-90
2023/08/01 00:10:11;;;;;;;6.00;2.80;;;;;;;-142.57;70.96;115900.28;5054299;28;20029;-90
2023/08/01 00:12:37;;;;;;;6.60;2.85;;;;;;;-142.57;71.32;115900.28;5052852;28;20044;-89
2023/08/01 00:15:04;;;;;;;5.28;2.85;;;;;;;-142.57;71.09;115900.28;5054798;28;20467;-88
2023/08/01 00:17:29;;;;;;;7.70;3.10;;;;;;;-142.57;71.86;115900.28;5054864;28;20031;-90
2023/08/01 00:19:55;;;;;;;7.60;2.95;;;;;;;-142.57;71.66;115900.28;5054874;28;20029;-89
2023/08/01 00:22:20;;;;;;;7.15;3.00;;;;;;;-142.57;71.41;115900.28;5055776;28;20068;-89
2023/08/01 00:24:49;;;;;;;9.73;3.45;;;;;;;-142.57;71.61;115900.28;5057996;28;20385;-90
2023/08/01 00:27:15;;;;;;;9.38;3.30;;;;;;;-142.57;72.25;115900.28;5054867;28;20079;-89
2023/08/01 00:29:41;;;;;;;6.55;3.20;;;;;;;-142.57;71.25;115900.28;5053542;28;20037;-89
2023/08/01 00:32:16;;;;;;;7.65;2.75;;;;;;;-142.57;72.09;115900.28;5055017;28;20060;-89
2023/08/01 00:34:41;;;;;;;5.30;2.65;;;;;;;-142.57;71.33;115900.28;5056597;28;20030;-89
2023/08/01 00:37:07;;;;;;;7.38;2.97;;;;;;;-142.57;72.15;115900.28;5076556;28;20024;-89
2023/08/01 00:39:33;;;;;;;7.00;3.20;;;;;;;-142.57;72.21;115900.28;5075882;28;20028;-90
2023/08/01 00:42:02;;;;;;;9.68;3.15;;;;;;;-142.57;74.40;115900.28;5076592;28;20041;-89
2023/08/01 00:44:27;;;;;;;6.15;2.85;;;;;;;-142.57;74.50;115900.28;5076686;28;20046;-88
2023/08/01 00:47:30;;;;;;;6.10;2.50;;;;;;;-142.57;74.98;115900.28;5077013;28;20092;-88
2023/08/01 00:49:56;;;;;;;8.63;3.22;;;;;;;-142.57;75.52;115900.28;5077703;28;20092;-90
2023/08/01 00:52:22;;;;;;;9.88;2.97;;;;;;;-142.57;75.85;115900.28;5069712;28;20044;-88
2023/08/01 00:54:48;;;;;;;5.88;2.40;;;;;;;-142.57;75.70;115900.28;5053987;28;20025;-89
2023/08/01 00:57:14;;;;;;;6.78;2.85;;;;;;;-142.57;74.81;115900.28;5054541;28;20414;-87
2023/08/01 00:59:40;;;;;;;8.23;3.33;;;;;;;-142.57;75.13;115900.28;5054434;28;20490;-88
2023/08/01 01:02:05;;;;;;;6.30;2.80;;;;;;;-142.57;74.69;115900.28;5054036;28;20083;-88
2023/08/01 01:04:31;;;;;;;7.63;2.67;;;;;;;-142.57;75.31;115900.28;5052200;28;20493;-90
2023/08/01 01:07:05;;;;;;;6.95;3.15;;;;;;;-142.57;76.26;115900.28;5053575;28;20044;-89
2023/08/01 01:09:31;;;;;;;9.30;3.63;;;;;;;-142.57;76.17;115900.28;5035735;28;20118;-89
2023/08/01 01:12:17;;;;;;;5.45;3.05;;;;;;;-142.57;75.77;115900.28;5053659;28;20067;-91
2023/08/01 01:14:42;;;;;;;8.18;3.03;;;;;;;-142.57;75.60;115900.28;5053782;28;20505;-89
2023/08/01 01:17:08;;;;;;;9.02;2.58;;;;;;;-142.57;75.49;115900.28;5057398;28;20132;-87
2023/08/01 01:19:33;;;;;;;6.03;2.63;;;;;;;-142.57;74.08;115900.28;5057355;28;20117;-86
2023/08/01 01:22:04;;;;;;;3.90;2.80;;;;;;;-142.57;70.97;115900.28;5058219;28;20076;-89
2023/08/01 01:24:31;;;;;;;6.32;2.67;;;;;;;-142.57;69.00;115900.28;5057247;28;20045;-90
2023/08/01 01:26:59;;;;;;;6.30;2.97;;;;;;;-142.57;68.80;115900.28;5038677;28;20393;-88
2023/08/01 01:29:30;;;;;;;4.63;2.20;;;;;;;-142.57;69.06;115900.28;5057328;28;20432;-87
2023/08/01 01:31:57;;;;;;;5.63;2.75;;;;;;;-142.57;68.56;115900.28;5057577;28;20070;-89
2023/08/01 01:34:23;;;;;;;5.80;2.72;;;;;;;-142.57;68.18;115900.28;5056124;28;20029;-89
2023/08/01 01:36:49;;;;;;;6.38;2.63;;;;;;;-142.57;67.82;115900.28;5056789;28;20033;-88
2023/08/01 01:39:14;;;;;;;6.72;2.65;;;;;;;-142.57;67.06;115900.28;5058865;28;20044;-89
2023/08/01 01:41:40;;;;;;;3.38;2.20;;;;;;;-142.57;67.43;115900.28;5057329;28;20041;-91
2023/08/01 01:44:05;;;;;;;5.93;3.08;;;;;;;-142.57;68.06;115900.28;5057708;28;20482;-89
2023/08/01 01:46:31;;;;;;;9.30;2.67;;;;;;;-142.57;68.35;115900.28;5038992;28;20051;-90
2023/08/01 01:49:00;;;;;;;6.00;2.92;;;;;;;-142.57;67.71;115900.28;5055555;28;20041;-90
2023/08/01 01:51:26;;;;;;;4.13;2.67;;;;;;;-142.57;68.50;115900.28;5056814;28;20037;-89
2023/08/01 01:53:52;;;;;;;9.57;2.50;;;;;;;-142.57;68.31;115900.28;5039119;28;20036;-89
2023/08/01 01:56:19;;;;;;;6.82;2.70;;;;;;;-142.57;67.93;115900.28;5055124;28;20481;-92
2023/08/01 01:58:45;;;;;;;4.13;2.50;;;;;;;-142.57;68.06;115900.28;5062939;28;20033;-88
2023/08/01 02:01:13;;;;;;;7.95;2.60;;;;;;;-142.57;68.03;115900.28;5043607;28;20037;-88
2023/08/01 02:03:39;;;;;;;7.65;2.63;;;;;;;-142.57;68.07;115900.28;5063511;28;20040;-89
2023/08/01 02:06:04;;;;;;;5.32;2.50;;;;;;;-142.57;67.68;115900.28;5059928;28;20056;-89
2023/08/01 02:08:30;;;;;;;5.32;2.75;;;;;;;-142.57;67.12;115900.28;5055403;28;20369;-89
2023/08/01 02:10:58;;;;;;;5.28;2.42;;;;;;;-142.57;67.64;115900.28;5054602;28;20033;-88
2023/08/01 02:13:27;;;;;;;4.47;2.70;;;;;;;-142.57;67.06;115900.28;5055222;28;20028;-88
2023/08/01 02:15:54;;;;;;;8.38;2.55;;;;;;;-142.57;68.42;115900.28;5055038;28;20029;-89
2023/08/01 02:18:20;;;;;;;7.20;2.88;;;;;;;-142.57;70.15;115900.28;5039214;28;20565;-90
2023/08/01 02:20:45;;;;;;;9.70;3.10;;;;;;;-142.57;70.27;115900.28;5037922;28;20104;-89
2023/08/01 02:23:11;;;;;;;4.78;2.45;;;;;;;-142.57;70.20;115900.28;5054835;28;20394;-90
2023/08/01 02:25:40;;;;;;;6.32;2.80;;;;;;;-142.57;70.03;115900.28;5056155;28;20527;-90
2023/08/01 02:28:07;;;;;;;3.95;2.60;;;;;;;-142.57;70.65;115900.28;5055983;28;20033;-92
2023/08/01 02:30:35;;;;;;;5.13;2.40;;;;;;;-142.57;70.49;115900.28;5054559;28;20133;-90
2023/08/01 02:33:01;;;;;;;5.55;2.90;;;;;;;-142.57;70.56;115900.28;5037738;28;20076;-90
2023/08/01 02:35:28;;;;;;;7.60;3.08;;;;;;;-142.57;70.27;115900.28;5058866;28;20104;-89
2023/08/01 02:37:54;;;;;;;6.70;2.67;;;;;;;-142.57;70.54;115900.28;5077609;28;20037;-93
2023/08/01 02:40:19;;;;;;;10.80;2.90;;;;;;;-142.57;70.19;115900.28;5074956;28;20068;-91
2023/08/01 02:42:45;;;;;;;5.65;2.70;;;;;;;-142.57;71.42;115900.28;5074839;28;20033;-91
2023/08/01 02:45:10;;;;;;;5.35;2.70;;;;;;;-142.57;70.50;115900.28;5075488;28;20041;-89
2023/08/01 02:47:57;;;;;;;4.00;2.60;;;;;;;-142.57;71.35;115900.28;5060215;28;20061;-89
2023/08/01 02:50:22;;;;;;;3.80;2.80;;;;;;;-142.57;69.94;115900.28;5057206;28;20099;-90
2023/08/01 02:52:48;;;;;;;6.85;2.72;;;;;;;-142.57;70.63;115900.28;5056406;28;20481;-89
2023/08/01 02:55:13;;;;;;;5.90;2.80;;;;;;;-142.57;71.30;115900.28;5054302;28;20064;-90
2023/08/01 02:57:39;;;;;;;7.55;2.67;;;;;;;-142.57;70.61;115900.28;5055785;28;20501;-89
2023/08/01 03:00:05;;;;;;;3.72;2.35;;;;;;;-142.57;69.43;115900.28;5053766;28;20159;-87
2023/08/01 03:02:34;;;;;;;3.97;2.47;;;;;;;-142.57;70.40;115900.28;5037649;28;20069;-89
2023/08/01 03:04:59;;;;;;;4.15;2.50;;;;;;;-142.57;71.51;115900.28;5053585;28;20036;-88
2023/08/01 03:07:25;;;;;;;7.32;2.90;;;;;;;-142.57;73.34;115900.28;5054913;28;20069;-88
2023/08/01 03:09:51;;;;;;;8.57;2.75;;;;;;;-142.57;73.66;115900.28;5054663;28;20037;-89
2023/08/01 03:12:17;;;;;;;7.28;2.88;;;;;;;-142.57;74.53;115900.28;5056788;28;20108;-88
2023/08/01 03:14:43;;;;;;;7.53;3.00;;;;;;;-142.57;73.64;115900.28;5053723;28;20393;-89
2023/08/01 03:17:09;;;;;;;5.03;2.70;;;;;;;-142.57;71.57;115900.28;5055074;28;20037;-89
2023/08/01 03:19:35;;;;;;;6.35;2.67;;;;;;;-142.57;70.62;115900.28;5053521;28;20044;-87
2023/08/01 03:22:01;;;;;;;6.68;2.55;;;;;;;-142.57;69.35;115900.28;5054886;28;20448;-89
2023/08/01 03:24:33;;;;;;;11.65;2.88;;;;;;;-142.57;69.64;115900.28;5055623;28;20036;-88
2023/08/01 03:27:00;;;;;;;4.55;2.38;;;;;;;-142.57;68.35;115900.28;5055217;28;20044;-88
2023/08/01 03:29:25;;;;;;;6.18;2.80;;;;;;;-142.57;68.79;115900.28;5055208;28;20032;-90
2023/08/01 03:31:51;;;;;;;5.32;2.50;;;;;;;-142.57;68.36;115900.28;5054841;28;20890;-89
2023/08/01 03:34:16;;;;;;;4.65;2.60;;;;;;;-142.57;67.75;115900.28;5056512;28;20485;-87
2023/08/01 03:36:42;;;;;;;7.20;2.63;;;;;;;-142.57;68.10;115900.28;5056673;28;20029;-88
2023/08/01 03:39:09;;;;;;;4.80;2.65;;;;;;;-142.57;67.81;115900.28;5055652;28;20456;-88
2023/08/01 03:41:36;;;;;;;4.60;2.85;;;;;;;-142.57;68.12;115900.28;5053585;28;20045;-88
2023/08/01 03:44:02;;;;;;;6.10;2.40;;;;;;;-142.57;67.71;115900.28;5054141;28;20044;-90
2023/08/01 03:46:28;;;;;;;5.78;2.90;;;;;;;-142.57;67.98;115900.28;5053224;28;20025;-90
2023/08/01 03:48:57;;;;;;;7.35;2.88;;;;;;;-142.57;67.87;115900.28;5054101;28;20037;-89
2023/08/01 03:51:22;;;;;;;5.05;2.75;;;;;;;-142.57;67.87;115900.28;5054108;28;20037;-86
2023/08/01 03:53:51;;;;;;;5.18;2.60;;;;;;;-142.57;67.21;115900.28;5052984;28;20033;-89
2023/08/01 03:56:17;;;;;;;6.32;2.65;;;;;;;-142.57;68.20;115900.28;5053059;28;20044;-88
2023/08/01 03:58:42;;;;;;;4.22;2.28;;;;;;;-142.57;68.47;115900.28;5053488;28;20025;-89
2023/08/01 04:01:08;;;;;;;7.13;2.78;;;;;;;-142.57;67.57;115900.28;5053595;28;20040;-89
2023/08/01 04:03:34;;;;;;;4.40;2.63;;;;;;;-142.57;67.66;115900.28;5053980;28;20041;-88
2023/08/01 04:05:59;;;;;;;9.63;2.75;;;;;;;-142.57;66.31;115900.28;5036682;28;20123;-87
2023/08/01 04:08:25;;;;;;;6.10;2.78;;;;;;;-142.57;66.60;115900.28;5053902;28;20143;-90
2023/08/01 04:10:50;;;;;;;5.30;2.42;;;;;;;-142.57;66.96;115900.28;5054492;28;20036;-90
2023/08/01 04:13:16;;;;;;;5.30;2.97;;;;;;;-142.57;67.43;115900.28;5055682;28;20025;-90
2023/08/01 04:15:41;;;;;;;8.13;3.30;;;;;;;-142.57;66.47;115900.28;5054662;28;20048;-90
2023/08/01 04:18:10;;;;;;;7.38;3.15;;;;;;;-142.57;65.80;115900.28;5054550;28;20068;-90
2023/08/01 04:20:35;;;;;;;5.78;3.05;;;;;;;-142.57;67.14;115900.28;5055270;28;20086;-90
2023/08/01 04:23:01;;;;;;;5.55;3.63;;;;;;;-142.57;68.85;115900.28;5053375;28;20115;-89
2023/08/01 04:25:27;;;;;;;9.65;2.78;;;;;;;-142.57;69.03;115900.28;5053181;28;20398;-90
2023/08/01 04:27:53;;;;;;;5.40;2.65;;;;;;;-142.57;68.91;115900.28;5054342;28;20036;-91
2023/08/01 04:30:18;;;;;;;5.75;2.70;;;;;;;-142.57;68.67;115900.28;5053399;28;20041;-91
2023/08/01 04:32:44;;;;;;;4.65;2.50;;;;;;;-142.57;68.14;115900.28;5053115;28;20037;-90
2023/08/01 04:35:09;;;;;;;6.90;3.00;;;;;;;-142.57;67.85;115900.28;5054933;28;20110;-89
2023/08/01 04:37:35;;;;;;;7.90;3.00;;;;;;;-142.57;67.48;115900.28;5053807;28;20398;-89
2023/08/01 04:40:04;;;;;;;7.32;2.70;;;;;;;-142.57;67.39;115900.28;5054680;28;20036;-91
2023/08/01 04:42:30;;;;;;;9.88;3.22;;;;;;;-142.57;67.44;115900.28;5055159;28;20060;-88
2023/08/01 04:44:55;;;;;;;5.57;2.60;;;;;;;-142.57;66.59;115900.28;5036481;28;20125;-89
2023/08/01 04:47:21;;;;;;;6.53;2.97;;;;;;;-142.57;66.84;115900.28;5055679;28;20079;-91
2023/08/01 04:49:46;;;;;;;6.63;3.00;;;;;;;-142.57;67.00;115900.28;5056055;28;20040;-91
2023/08/01 04:52:12;;;;;;;6.07;3.00;;;;;;;-142.57;66.37;115900.28;5059485;28;20070;-88
2023/08/01 04:54:38;;;;;;;9.57;3.20;;;;;;;-142.57;65.96;115900.28;5061154;28;20052;-90
2023/08/01 04:57:04;;;;;;;5.95;2.80;;;;;;;-142.57;66.56;115900.28;5067947;28;20029;-94
2023/08/01 04:59:30;;;;;;;14.52;2.88;;;;;;;-142.57;65.80;115900.28;5062969;28;20072;-92
2023/08/01 05:02:00;;;;;;;4.05;2.60;;;;;;;-142.57;65.58;115900.28;5057704;28;20481;-88
2023/08/01 05:04:26;;;;;;;5.97;2.97;;;;;;;-142.57;67.23;115900.28;5038017;28;20045;-91
2023/08/01 05:06:52;;;;;;;7.50;2.72;;;;;;;-142.57;66.92;115900.28;5045710;28;20044;-88
2023/08/01 05:09:17;;;;;;;9.85;3.35;;;;;;;-142.57;67.23;115900.28;5065942;28;20096;-89
2023/08/01 05:11:44;;;;;;;10.05;3.40;;;;;;;-142.57;66.85;115900.28;5063403;28;20515;-89
2023/08/01 05:14:09;;;;;;;12.35;3.40;;;;;;;-142.57;66.47;115900.28;5061977;28;20042;-90
2023/08/01 05:16:36;;;;;;;9.18;3.60;;;;;;;-142.57;66.33;115900.28;5064517;28;20089;-90
2023/08/01 05:19:30;;;;;;;11.85;3.35;;;;;;;-142.57;65.87;115900.28;5071777;28;20033;-90
2023/08/01 05:22:24;;;;;;;13.68;4.13;;;;;;;-142.57;64.06;115900.28;5076385;28;20064;-88
2023/08/01 05:24:53;;;;;;;12.57;4.03;;;;;;;-142.57;64.12;115900.28;5067351;28;20037;-89
2023/08/01 05:27:58;;;;;;;6.22;3.95;;;;;;;-142.57;63.72;115900.28;5063024;28;20099;-89
2023/08/01 05:30:24;;;;;;;19.35;3.83;;;;;;;-142.57;63.93;115900.28;5061127;28;20033;-85
2023/08/01 05:32:50;;;;;;;9.27;3.83;;;;;;;-142.57;62.76;115900.28;5059962;28;20029;-89
2023/08/01 05:35:15;;;;;;;11.60;3.60;;;;;;;-142.57;62.41;115900.28;5060478;28;20083;-88
2023/08/01 05:37:41;;;;;;;17.02;3.55;;;;;;;-142.57;62.10;115900.28;5061019;28;20032;-90
2023/08/01 05:40:07;;;;;;;10.35;3.55;;;;;;;-142.57;62.32;115900.28;5060154;28;20037;-86
2023/08/01 05:42:33;;;;;;;13.18;3.22;;;;;;;-142.57;62.49;115900.28;5060991;28;20036;-88
2023/08/01 05:44:58;;;;;;;13.43;3.42;;;;;;;-142.57;62.54;115900.28;5063376;28;20025;-89
2023/08/01 05:47:24;;;;;;;11.38;4.30;;;;;;;-142.57;63.52;115900.28;5064229;28;20033;-89
2023/08/01 05:49:52;;;;;;;13.23;4.00;;;;;;;-142.57;63.66;115900.28;5062142;28;20474;-91
2023/08/01 05:52:19;;;;;;;7.78;4.28;;;;;;;-142.57;65.24;115900.28;5060540;28;20105;-89
2023/08/01 05:54:45;;;;;;;7.85;4.15;;;;;;;-142.57;65.41;115900.28;5047646;28;20040;-86
2023/08/01 05:57:11;;;;;;;12.40;4.43;;;;;;;-142.57;65.52;115900.28;5057125;28;20029;-88
2023/08/01 05:59:38;;;;;;;17.67;4.43;;;;;;;-142.57;66.60;115900.28;5058347;28;20060;-90
2023/08/01 06:02:07;;;;;;;9.50;4.25;;;;;;;-142.57;66.77;115900.28;5045396;28;20037;-90
2023/08/01 06:04:38;;;;;;;13.98;4.50;;;;;;;-142.57;65.79;115900.28;5053656;28;20038;-91
2023/08/01 06:07:05;;;;;;;14.32;4.57;;;;;;;-142.57;67.30;115900.28;5045786;28;20041;-88
2023/08/01 06:09:30;;;;;;;17.52;5.40;;;;;;;-142.57;67.60;115900.28;5063564;28;20041;-92
2023/08/01 06:12:00;;;;;;;17.27;5.68;;;;;;;-142.57;66.80;115900.28;5064185;28;20056;-92
2023/08/01 06:14:30;;;;;;;8.77;5.10;;;;;;;-142.57;64.12;115900.28;5044959;28;20489;-91
2023/08/01 06:17:05;;;;;;;18.95;4.95;;;;;;;-142.57;63.20;115900.28;5054242;28;20159;-89
2023/08/01 06:19:34;;;;;;;15.57;4.40;;;;;;;-142.57;65.14;115900.28;5050325;28;20414;-88
2023/08/01 06:22:00;;;;;;;14.30;4.30;;;;;;;-142.57;66.04;115900.28;5048717;28;20136;-89
2023/08/01 06:24:52;;;;;;;15.68;4.28;;;;;;;-142.57;66.26;115900.28;5058942;23;20048;-87
2023/08/01 06:27:17;;;;;;;11.75;3.88;;;;;;;-142.57;64.58;115900.28;5048031;28;20075;-87
2023/08/01 06:29:43;;;;;;;8.20;3.35;;;;;;;-142.57;64.45;115900.28;5041892;28;20071;-86
2023/08/01 06:32:15;;;;;;;10.80;3.80;;;;;;;-142.57;64.29;115900.28;5067014;28;20037;-91
2023/08/01 06:34:47;;;;;;;9.83;3.77;;;;;;;-142.57;65.38;115900.28;5052240;28;20041;-90
2023/08/01 06:37:14;;;;;;;8.00;3.60;;;;;;;-142.57;64.55;115900.28;5050759;28;20113;-91
2023/08/01 06:39:41;;;;;;;9.30;3.58;;;;;;;-142.57;63.09;115900.28;5052850;28;20021;-89
2023/08/01 06:47:31;;;;;;;9.43;3.78;;;;;;;-142.57;62.45;115900.28;5051371;28;20438;-90
2023/08/01 06:49:56;;;;;;;11.43;3.43;;;;;;;-142.57;61.32;115900.28;5031857;28;20045;-89
2023/08/01 06:52:22;;;;;;;9.95;3.50;;;;;;;-142.57;59.81;115900.28;5089315;22;20379;-90
2023/08/01 06:54:48;;;;;;;8.10;2.95;;;;;;;-142.57;53.90;115900.28;5032172;28;20066;-90
2023/08/01 06:57:17;;;;;;;9.90;3.70;;;;;;;-142.57;52.97;115900.28;5069260;28;20101;-91
2023/08/01 06:59:59;;;;;;;8.45;3.10;;;;;;;-142.57;55.38;115900.28;5085095;23;20417;-90
2023/08/01 07:02:31;;;;;;;10.00;4.13;;;;;;;-142.57;56.39;115900.28;5071897;28;20041;-88
2023/08/01 07:04:57;;;;;;;8.93;3.50;;;;;;;-142.57;56.31;115900.28;5066244;28;20025;-90
2023/08/01 07:07:23;;;;;;;9.57;3.83;;;;;;;-142.57;56.91;115900.28;5012462;28;20038;-90
2023/08/01 07:09:49;;;;;;;9.95;3.63;;;;;;;-142.57;56.75;115900.28;5032627;28;20071;-90
2023/08/01 07:12:33;;;;;;;8.52;3.70;;;;;;;-142.57;56.14;115900.28;5069735;28;20069;-92
2023/08/01 07:15:03;;;;;;;9.05;3.70;;;;;;;-142.57;55.64;115900.28;5070460;28;20036;-91
2023/08/01 07:17:49;;;;;;;8.80;3.40;;;;;;;-142.57;54.65;115900.28;5067755;28;20070;-92
2023/08/01 07:20:26;;;;;;;9.70;3.25;;;;;;;-142.57;54.38;115900.28;5080546;23;20045;-91
2023/08/01 07:22:58;;;;;;;9.43;3.60;;;;;;;-142.57;53.43;115900.28;5051069;28;20031;-91
2023/08/01 07:25:36;;;;;;;9.80;3.35;;;;;;;-142.57;52.47;115900.28;5068854;28;20033;-91
2023/08/01 07:28:02;;;;;;;8.55;3.78;;;;;;;-142.57;50.03;115900.28;5049475;28;20037;-90
2023/08/01 07:30:40;;;;;;;6.53;3.83;;;;;;;-142.57;49.60;115900.28;5051291;28;20040;-91
2023/08/01 07:35:53;;;;;;;14.38;4.35;;;;;;;-142.57;50.37;115900.28;4688893;26;20052;-90
2023/08/01 07:38:21;;;;;;;11.75;4.72;;;;;;;-142.57;51.04;115900.28;5070442;28;20486;-91
2023/08/01 07:41:09;;;;;;;17.13;4.97;;;;;;;-142.57;51.51;115900.28;5070408;28;20039;-89
2023/08/01 07:43:38;;;;;;;11.52;5.95;;;;;;;-142.57;54.50;115900.28;5063949;28;20108;-91
2023/08/01 07:49:09;;;;;;;13.82;5.97;;;;;;;-142.57;53.93;115900.28;4596624;26;20064;-89
2023/08/01 07:51:36;;;;;;;15.98;5.53;;;;;;;-142.57;53.20;115900.28;5031410;28;20041;-86
2023/08/01 07:54:14;;;;;;;14.85;5.45;;;;;;;-142.57;50.95;115900.28;5071122;28;20028;-85
2023/08/01 07:56:43;;;;;;;12.73;5.05;;;;;;;-142.57;49.61;115900.28;5080591;23;20046;-86
2023/08/01 07:59:18;;;;;;;12.57;5.30;;;;;;;-142.57;49.18;115900.28;5071112;28;20049;-86
2023/08/01 08:01:44;;;;;;;11.30;5.13;;;;;;;-142.57;47.44;115900.28;5065333;28;20047;-86
2023/08/01 08:04:28;;;;;;;13.85;5.57;;;;;;;-142.57;46.20;115900.28;5076087;23;20033;-83
2023/08/01 08:07:02;;;;;;;12.95;4.97;;;;;;;-142.57;44.55;115900.28;5070125;28;20073;-86
2023/08/01 08:09:49;;;;;;;14.55;4.88;;;;;;;-142.57;46.60;115900.28;5070343;28;20040;-85
2023/08/01 08:12:17;;;;;;;13.10;3.88;;;;;;;-142.57;45.35;115900.28;5064255;28;20032;-91
2023/08/01 08:14:42;;;;;;;11.77;3.45;;;;;;;-142.57;43.39;115900.28;5031804;28;20128;-89
2023/08/01 08:17:08;;;;;;;10.40;3.50;;;;;;;-142.57;42.30;115900.28;5067179;28;20044;-90
2023/08/01 08:19:34;;;;;;;12.18;3.53;;;;;;;-142.57;42.46;115900.28;5059906;28;20033;-87
2023/08/01 08:22:00;;;;;;;12.90;3.85;;;;;;;-142.57;42.39;115900.28;5064865;28;21294;-87
2023/08/01 08:24:25;;;;;;;14.25;3.63;;;;;;;-142.57;42.01;115900.28;5060774;28;20033;-86
2023/08/01 08:26:54;;;;;;;11.88;3.17;;;;;;;-142.57;41.12;115900.28;5067966;28;20035;-87
2023/08/01 08:29:22;;;;;;;11.18;2.80;;;;;;;-142.57;40.60;115900.28;5068803;28;20033;-89
2023/08/01 08:31:54;;;;;;;7.70;2.92;;;;;;;-142.57;40.06;115900.28;5049923;28;20041;-88
2023/08/01 08:34:19;;;;;;;14.10;3.03;;;;;;;-142.57;40.27;115900.28;5059549;28;20037;-85
2023/08/01 08:36:46;;;;;;;9.85;2.75;;;;;;;-142.57;40.74;115900.28;5059183;28;20033;-85
2023/08/01 08:39:12;;;;;;;7.13;3.05;;;;;;;-142.57;39.96;115900.28;5058130;28;20621;-87
2023/08/01 08:41:49;;;;;;;9.15;3.03;;;;;;;-142.57;40.50;115900.28;5052838;28;20111;-79
2023/08/01 08:44:17;;;;;;;11.23;2.97;;;;;;;-142.57;40.48;115900.28;5046841;28;20070;-87
2023/08/01 08:46:45;;;;;;;6.22;2.75;;;;;;;-142.57;39.30;115900.28;5054269;28;20421;-85
2023/08/01 08:49:11;;;;;;;8.30;2.85;;;;;;;-142.57;36.62;115900.28;5046424;28;20057;-86
2023/08/01 08:51:38;;;;;;;5.07;3.10;;;;;;;-142.57;35.03;115900.28;5060496;28;20029;-82
2023/08/01 08:54:05;;;;;;;9.13;3.10;;;;;;;-142.57;35.33;115900.28;5060407;28;20039;-87
2023/08/01 08:56:31;;;;;;;13.05;2.85;;;;;;;-142.57;36.20;115900.28;5053562;28;20375;-84
2023/08/01 08:58:57;;;;;;;9.77;3.35;;;;;;;-142.57;36.88;115900.28;5049041;28;20449;-86
2023/08/01 09:01:22;;;;;;;62.10;5.40;;;;;;;-142.57;37.13;115900.28;5044579;28;20036;-83
2023/08/01 09:03:48;;;;;;;35.95;4.30;;;;;;;-142.57;37.32;115900.28;5055207;28;20106;-86
2023/08/01 09:06:16;;;;;;;18.08;4.13;;;;;;;-142.57;37.80;115900.28;5042002;28;20056;-85
2023/08/01 09:08:51;;;;;;;10.20;3.05;;;;;;;-142.57;37.21;115900.28;5049386;28;20034;-84
2023/08/01 09:11:16;;;;;;;7.28;3.28;;;;;;;-142.57;37.93;115900.28;5049859;28;20036;-81
2023/08/01 09:13:42;;;;;;;6.95;3.00;;;;;;;-142.57;37.04;115900.28;5052829;28;20124;-82
2023/08/01 09:16:09;;;;;;;11.80;3.53;;;;;;;-142.57;37.34;115900.28;5041360;28;20458;-79
2023/08/01 09:18:35;;;;;;;8.60;3.53;;;;;;;-142.57;36.94;115900.28;5050441;28;20033;-85
2023/08/01 09:21:04;;;;;;;7.82;3.70;;;;;;;-142.57;38.04;115900.28;5048144;28;20505;-85
2023/08/01 09:23:30;;;;;;;12.15;3.55;;;;;;;-142.57;37.05;115900.28;5043807;28;20042;-81
2023/08/01 09:25:56;;;;;;;6.97;3.53;;;;;;;-142.57;36.63;115900.28;5057152;28;20497;-86
2023/08/01 09:28:24;;;;;;;10.48;3.63;;;;;;;-142.57;37.15;115900.28;5050845;28;20071;-81
2023/08/01 09:30:55;;;;;;;13.30;3.60;;;;;;;-142.57;36.20;115900.28;5047046;28;20542;-81
2023/08/01 09:33:22;;;;;;;10.25;3.53;;;;;;;-142.57;36.64;115900.28;5057014;28;20025;-80
2023/08/01 09:35:50;;;;;;;14.05;4.05;;;;;;;-142.57;36.40;115900.28;5041740;28;20042;-80
2023/08/01 09:38:16;;;;;;;13.38;4.40;;;;;;;-142.57;36.38;115900.28;5051393;28;20026;-79
2023/08/01 09:40:43;;;;;;;10.68;3.67;;;;;;;-142.57;36.25;115900.28;5043881;28;20040;-82
2023/08/01 09:43:10;;;;;;;9.32;3.60;;;;;;;-142.57;35.63;115900.28;5056049;28;20033;-83
2023/08/01 09:45:36;;;;;;;7.70;3.45;;;;;;;-142.57;36.46;115900.28;5054644;28;20033;-82
2023/08/01 09:48:02;;;;;;;6.32;3.45;;;;;;;-142.57;36.20;115900.28;5055628;28;20028;-80
2023/08/01 09:50:28;;;;;;;9.52;3.53;;;;;;;-142.57;36.13;115900.28;5056184;28;20456;-82
2023/08/01 09:52:53;;;;;;;10.15;4.30;;;;;;;-142.57;36.59;115900.28;5055755;28;20493;-81
2023/08/01 09:55:38;;;;;;;15.15;3.83;;;;;;;-142.57;36.78;115900.28;5054514;28;20111;-84
2023/08/01 09:58:04;;;;;;;7.00;3.45;;;;;;;-142.57;36.76;115900.28;5055263;28;20040;-81
2023/08/01 10:00:29;;;;;;;7.68;3.63;;;;;;;-142.57;36.30;115900.28;5056690;28;20410;-81
2023/08/01 10:03:00;;;;;;;10.30;4.35;;;;;;;-142.57;36.20;115900.28;5056975;28;20076;-81
2023/08/01 10:05:30;;;;;;;9.90;3.67;;;;;;;-142.57;34.83;115900.28;5056357;28;20486;-80
2023/08/01 10:07:59;;;;;;;7.63;3.47;;;;;;;-142.57;34.67;115900.28;5056198;28;20044;-84
2023/08/01 10:10:25;;;;;;;7.57;3.63;;;;;;;-142.57;32.71;115900.28;5065950;28;20060;-84
2023/08/01 10:12:51;;;;;;;10.68;3.70;;;;;;;-142.57;33.29;115900.28;5059606;28;20116;-82
2023/08/01 10:15:18;;;;;;;6.22;3.60;;;;;;;-142.57;33.29;115900.28;5056225;28;20063;-85
2023/08/01 10:17:44;;;;;;;15.40;3.53;;;;;;;-142.57;33.65;115900.28;5055452;28;20087;-82
2023/08/01 10:20:12;;;;;;;7.65;4.03;;;;;;;-142.57;34.18;115900.28;5055832;28;20497;-80
2023/08/01 10:22:40;;;;;;;9.60;3.55;;;;;;;-142.57;35.50;115900.28;5058665;28;20080;-82
2023/08/01 10:25:08;;;;;;;7.20;3.58;;;;;;;-142.57;35.58;115900.28;5057071;28;20065;-84
2023/08/01 10:27:35;;;;;;;12.05;3.83;;;;;;;-142.57;36.05;115900.28;5056191;28;20075;-84
2023/08/01 10:30:03;;;;;;;12.50;4.22;;;;;;;-142.57;35.60;115900.28;5058855;28;20492;-84
2023/08/01 10:32:34;;;;;;;11.45;3.90;;;;;;;-142.57;35.47;115900.28;5059916;28;20071;-86
2023/08/01 10:34:59;;;;;;;15.10;3.92;;;;;;;-142.57;35.88;115900.28;5061957;28;20469;-78
2023/08/01 10:37:25;;;;;;;10.63;4.25;;;;;;;-142.57;36.05;115900.28;5059386;28;20041;-86
2023/08/01 10:39:59;;;;;;;12.10;3.90;;;;;;;-142.57;35.36;115900.28;5059839;28;20079;-84
2023/08/01 10:42:25;;;;;;;21.85;4.72;;;;;;;-142.57;34.72;115900.28;5056418;28;20033;-83
2023/08/01 10:44:50;;;;;;;11.45;4.30;;;;;;;-142.57;34.68;115900.28;5057893;28;20373;-82
2023/08/01 10:47:26;;;;;;;7.78;3.60;;;;;;;-142.57;33.92;115900.28;5054183;28;20037;-81
2023/08/01 10:49:52;;;;;;;9.05;4.10;;;;;;;-142.57;33.95;115900.28;5054818;28;20037;-81
2023/08/01 10:52:28;;;;;;;9.10;3.83;;;;;;;-142.57;33.18;115900.28;5054951;28;20248;-79
2023/08/01 10:55:01;;;;;;;10.13;3.92;;;;;;;-142.57;33.59;115900.28;5054299;28;20095;-81
2023/08/01 10:57:28;;;;;;;12.23;3.58;;;;;;;-142.57;33.16;115900.28;5054567;28;20055;-77
2023/08/01 10:59:55;;;;;;;10.10;3.83;;;;;;;-142.57;33.38;115900.28;5054469;28;20412;-81
2023/08/01 11:02:24;;;;;;;8.88;3.90;;;;;;;-142.57;32.64;115900.28;5054839;28;20033;-84
2023/08/01 11:05:00;;;;;;;13.13;3.55;;;;;;;-142.57;32.90;115900.28;5054490;28;20044;-83
2023/08/01 11:07:26;;;;;;;7.07;3.55;;;;;;;-142.57;32.84;115900.28;5054650;28;20124;-82
2023/08/01 11:10:12;;;;;;;9.15;3.72;;;;;;;-142.57;32.95;115900.28;5054392;28;20056;-80
2023/08/01 11:12:40;;;;;;;12.52;3.78;;;;;;;-142.57;32.11;115900.28;5054895;28;20529;-84
2023/08/01 11:15:08;;;;;;;7.88;3.35;;;;;;;-142.57;32.60;115900.28;5054919;28;20036;-78
2023/08/01 11:17:36;;;;;;;8.85;4.00;;;;;;;-142.57;32.58;115900.28;5053916;28;20037;-80
2023/08/01 11:20:07;;;;;;;11.95;4.45;;;;;;;-142.57;32.36;115900.28;5054076;28;20037;-81
2023/08/01 11:22:33;;;;;;;9.13;3.77;;;;;;;-142.57;33.42;115900.28;5053928;28;20505;-81